Time;durP1;ratioP1;P1;durP2;ratioP2;P2;SDS_P1;SDS_P2;PMS_P1;PMS_P2;Temp;Humidity;BMP_temperature;BMP_pressure;BME280_temperature;BME280_humidity;BME280_pressure;Samples;Min_cycle;Max_cycle;Signal;HPM_P1;HPM_P2
2024/01/28 00:01:57;;;;;;;0.70;0.70;;;;;;;5.06;nan;100495.25;5053655;28;20200;-68
2024/01/28 00:04:23;;;;;;;0.70;0.70;;;;;;;5.05;nan;100502.84;5053551;28;20255;-68
2024/01/28 00:06:51;;;;;;;0.70;0.70;;;;;;;5.06;nan;100504.56;5053860;28;20673;-67
2024/01/28 00:09:18;;;;;;;0.53;0.53;;;;;;;5.01;nan;100486.72;5053445;28;20196;-67
2024/01/28 00:11:45;;;;;;;0.70;0.70;;;;;;;5.07;nan;100496.94;5053524;28;20197;-68
2024/01/28 00:14:11;;;;;;;0.50;0.50;;;;;;;5.09;nan;100495.28;5053289;28;20791;-68
2024/01/28 00:16:38;;;;;;;0.70;0.70;;;;;;;5.09;nan;100494.41;5053066;28;20197;-68
2024/01/28 00:19:05;;;;;;;0.70;0.70;;;;;;;5.12;nan;100502.94;5053485;28;20728;-67
2024/01/28 00:21:35;;;;;;;0.97;0.97;;;;;;;5.12;nan;100508.00;5052416;28;20211;-68
2024/01/28 00:24:04;;;;;;;0.93;0.93;;;;;;;5.14;nan;100505.47;5053142;28;20208;-68
2024/01/28 00:26:36;;;;;;;0.73;0.73;;;;;;;5.11;nan;100498.66;5052485;28;20197;-68
2024/01/28 00:29:03;;;;;;;0.63;0.63;;;;;;;5.00;nan;100484.16;5052749;28;20262;-68
2024/01/28 00:31:30;;;;;;;0.70;0.70;;;;;;;5.11;nan;100506.28;5052957;28;20204;-67
2024/01/28 00:33:56;;;;;;;0.70;0.70;;;;;;;5.04;nan;100494.34;5052779;28;20213;-68
2024/01/28 00:36:23;;;;;;;0.70;0.70;;;;;;;5.01;nan;100491.78;5052754;28;20665;-68
2024/01/28 00:38:51;;;;;;;0.60;0.60;;;;;;;4.93;nan;100488.34;5052507;28;20212;-67
2024/01/28 00:41:23;;;;;;;0.80;0.80;;;;;;;4.87;nan;100495.03;5053006;28;20246;-67
2024/01/28 00:43:52;;;;;;;0.53;0.53;;;;;;;4.81;nan;100485.69;5052648;28;20287;-68
2024/01/28 00:46:20;;;;;;;0.70;0.70;;;;;;;4.81;nan;100488.22;5052907;28;20690;-67
2024/01/28 00:48:46;;;;;;;0.60;0.60;;;;;;;4.83;nan;100495.84;5052639;28;20193;-67
2024/01/28 00:51:13;;;;;;;0.60;0.60;;;;;;;4.87;nan;100483.19;5052360;28;20200;-68
2024/01/28 00:53:40;;;;;;;0.60;0.60;;;;;;;4.89;nan;100481.50;5050813;28;20204;-68
2024/01/28 00:56:07;;;;;;;0.60;0.60;;;;;;;4.85;nan;100477.22;5050275;28;20733;-68
2024/01/28 00:58:35;;;;;;;0.83;0.83;;;;;;;4.87;nan;100478.13;5052713;28;20680;-67
2024/01/28 01:01:02;;;;;;;0.60;0.60;;;;;;;4.83;nan;100481.47;5051954;28;20197;-68
2024/01/28 01:03:28;;;;;;;0.50;0.50;;;;;;;4.89;nan;100486.59;5052511;28;20197;-68
2024/01/28 01:05:55;;;;;;;0.60;0.60;;;;;;;4.89;nan;100496.75;5052280;28;20657;-67
2024/01/28 01:08:22;;;;;;;0.80;0.80;;;;;;;4.88;nan;100501.84;5052359;28;20209;-68
2024/01/28 01:10:49;;;;;;;0.50;0.50;;;;;;;4.83;nan;100511.94;5052266;28;20569;-67
2024/01/28 01:13:15;;;;;;;0.50;0.50;;;;;;;4.78;nan;100505.97;5052116;28;20209;-67
2024/01/28 01:15:44;;;;;;;0.60;0.60;;;;;;;4.83;nan;100529.72;5052145;28;20220;-67
2024/01/28 01:18:11;;;;;;;1.03;1.03;;;;;;;4.72;nan;100514.34;5051886;28;20278;-67
2024/01/28 01:20:38;;;;;;;0.60;0.60;;;;;;;4.72;nan;100506.75;5051948;28;20668;-67
2024/01/28 01:23:05;;;;;;;0.57;0.57;;;;;;;4.81;nan;100533.94;5050616;28;20201;-67
2024/01/28 01:25:32;;;;;;;0.60;0.60;;;;;;;4.80;nan;100532.25;5052095;28;20246;-67
2024/01/28 01:27:58;;;;;;;0.50;0.50;;;;;;;4.71;nan;100527.06;5051472;28;20200;-69
2024/01/28 01:30:25;;;;;;;0.60;0.60;;;;;;;4.76;nan;100523.72;5051604;28;20258;-68
2024/01/28 01:32:53;;;;;;;0.50;0.50;;;;;;;4.72;nan;100529.59;5051878;28;20266;-68
2024/01/28 01:35:20;;;;;;;1.30;1.30;;;;;;;4.69;nan;100529.56;5051153;28;20220;-68
2024/01/28 01:37:47;;;;;;;1.00;1.00;;;;;;;4.65;nan;100524.44;5051638;28;20229;-69
2024/01/28 01:40:14;;;;;;;0.50;0.50;;;;;;;4.65;nan;100524.44;5049501;28;20236;-68
2024/01/28 01:42:42;;;;;;;0.63;0.63;;;;;;;4.62;nan;100526.97;5049606;28;20310;-68
2024/01/28 01:45:09;;;;;;;0.50;0.50;;;;;;;4.61;nan;100523.56;5051736;28;20192;-68
2024/01/28 01:47:36;;;;;;;0.60;0.60;;;;;;;4.64;nan;100523.59;5051651;28;20197;-68
2024/01/28 01:50:06;;;;;;;0.70;0.70;;;;;;;4.64;nan;100530.34;5051005;28;20201;-68
2024/01/28 01:52:33;;;;;;;0.63;0.63;;;;;;;4.62;nan;100521.88;5050334;28;20557;-69
2024/01/28 01:55:00;;;;;;;0.63;0.63;;;;;;;4.56;nan;100516.69;5051160;28;20216;-68
2024/01/28 01:57:27;;;;;;;0.60;0.60;;;;;;;4.55;nan;100525.16;5050597;28;20270;-68
2024/01/28 01:59:54;;;;;;;0.60;0.60;;;;;;;4.45;nan;100508.13;5051622;28;20676;-68
2024/01/28 02:02:21;;;;;;;0.70;0.70;;;;;;;4.43;nan;100520.78;5050813;28;20228;-68
2024/01/28 02:04:49;;;;;;;1.63;0.70;;;;;;;4.41;nan;100507.22;5051928;28;20250;-69
2024/01/28 02:07:17;;;;;;;0.67;0.67;;;;;;;4.41;nan;100521.59;5051222;28;20259;-68
2024/01/28 02:09:44;;;;;;;0.70;0.70;;;;;;;4.40;nan;100524.97;5051374;28;20201;-68
2024/01/28 02:12:10;;;;;;;0.70;0.70;;;;;;;4.47;nan;100529.28;5051308;28;20200;-68
2024/01/28 02:14:38;;;;;;;0.50;0.50;;;;;;;4.49;nan;100532.72;5050750;28;20286;-68
2024/01/28 02:17:05;;;;;;;0.60;0.60;;;;;;;4.44;nan;100534.34;5050505;28;20319;-68
2024/01/28 02:19:32;;;;;;;0.67;0.67;;;;;;;4.46;nan;100525.91;5051144;28;20288;-68
2024/01/28 02:21:59;;;;;;;0.50;0.50;;;;;;;4.44;nan;100536.88;5050807;28;20200;-69
2024/01/28 02:24:27;;;;;;;0.60;0.60;;;;;;;4.36;nan;100533.41;5050866;28;20189;-68
2024/01/28 02:26:53;;;;;;;0.70;0.70;;;;;;;4.45;nan;100536.03;5050641;28;20619;-68
2024/01/28 02:29:20;;;;;;;0.90;0.90;;;;;;;4.43;nan;100542.78;5050946;28;20204;-68
2024/01/28 02:31:47;;;;;;;0.50;0.50;;;;;;;4.48;nan;100548.78;5050699;28;20204;-68
2024/01/28 02:34:14;;;;;;;0.60;0.60;;;;;;;4.54;nan;100553.94;5050885;28;20200;-68
2024/01/28 02:36:40;;;;;;;0.50;0.50;;;;;;;4.55;nan;100551.44;5049019;28;20549;-68
2024/01/28 02:39:07;;;;;;;0.67;0.67;;;;;;;4.55;nan;100553.09;5051052;28;20200;-68
2024/01/28 02:41:35;;;;;;;0.60;0.60;;;;;;;4.48;nan;100546.25;5050696;28;20201;-68
2024/01/28 02:44:02;;;;;;;0.60;0.60;;;;;;;4.49;nan;100555.56;5049154;28;20660;-68
2024/01/28 02:46:28;;;;;;;0.50;0.50;;;;;;;4.50;nan;100553.03;5049817;28;20204;-68
2024/01/28 02:48:56;;;;;;;0.60;0.60;;;;;;;4.48;nan;100553.84;5050631;28;20262;-68
2024/01/28 02:51:22;;;;;;;0.50;0.50;;;;;;;4.48;nan;100553.84;5050807;28;20596;-69
2024/01/28 02:53:49;;;;;;;0.70;0.70;;;;;;;4.49;nan;100565.72;5050061;28;20250;-69
2024/01/28 02:56:16;;;;;;;0.80;0.80;;;;;;;4.41;nan;100559.69;5046950;28;20692;-68
2024/01/28 02:58:44;;;;;;;0.60;0.60;;;;;;;4.41;nan;100563.09;5049517;28;20695;-68
2024/01/28 03:01:11;;;;;;;0.60;0.60;;;;;;;4.29;nan;100562.06;5047864;28;20254;-68
2024/01/28 03:03:38;;;;;;;0.70;0.70;;;;;;;4.28;nan;100571.38;5050205;28;20258;-68
2024/01/28 03:06:05;;;;;;;0.97;0.97;;;;;;;4.25;nan;100573.84;5049961;28;20196;-68
2024/01/28 03:08:32;;;;;;;0.73;0.73;;;;;;;4.18;nan;100575.47;5050948;28;20246;-68
2024/01/28 03:10:58;;;;;;;0.60;0.60;;;;;;;4.20;nan;100583.94;5050308;28;20200;-68
2024/01/28 03:13:25;;;;;;;0.70;0.70;;;;;;;4.18;nan;100572.06;5049960;28;20204;-68
2024/01/28 03:15:54;;;;;;;0.80;0.80;;;;;;;4.18;nan;100578.00;5052740;28;20663;-68
2024/01/28 03:18:21;;;;;;;1.23;1.23;;;;;;;4.16;nan;100576.28;5054223;28;20242;-68
2024/01/28 03:20:48;;;;;;;0.60;0.60;;;;;;;4.14;nan;100577.91;5054530;28;20200;-68
2024/01/28 03:23:15;;;;;;;0.50;0.50;;;;;;;4.15;nan;100582.16;5054134;28;20273;-68
2024/01/28 03:25:43;;;;;;;0.97;0.97;;;;;;;4.12;nan;100580.44;5054031;28;20228;-68
2024/01/28 03:28:09;;;;;;;0.50;0.50;;;;;;;4.13;nan;100583.84;5053424;28;20208;-68
2024/01/28 03:30:36;;;;;;;0.83;0.83;;;;;;;4.10;nan;100578.72;5049398;28;20200;-68
2024/01/28 03:33:04;;;;;;;0.73;0.73;;;;;;;4.05;nan;100573.56;5053952;28;20196;-68
2024/01/28 03:35:31;;;;;;;0.60;0.60;;;;;;;3.93;nan;100563.25;5053741;28;20221;-68
2024/01/28 03:37:57;;;;;;;0.70;0.70;;;;;;;3.88;nan;100557.22;5054721;28;20669;-69
2024/01/28 03:40:23;;;;;;;0.60;0.60;;;;;;;3.91;nan;100569.97;5054108;28;20193;-68
2024/01/28 03:42:50;;;;;;;0.50;0.50;;;;;;;3.91;nan;100574.22;5054104;28;20250;-68
2024/01/28 03:45:17;;;;;;;0.50;0.50;;;;;;;3.88;nan;100572.44;5053121;28;20622;-68
2024/01/28 03:47:43;;;;;;;0.60;0.60;;;;;;;3.87;nan;100583.44;5054165;28;20585;-69
2024/01/28 03:50:12;;;;;;;0.80;0.80;;;;;;;3.87;nan;100583.44;5053767;28;20243;-68
2024/01/28 03:52:39;;;;;;;0.60;0.60;;;;;;;3.86;nan;100585.94;5050073;28;20223;-68
2024/01/28 03:55:07;;;;;;;0.60;0.60;;;;;;;3.84;nan;100582.56;5052308;28;20216;-69
2024/01/28 03:57:34;;;;;;;0.70;0.70;;;;;;;3.78;nan;100587.53;5053386;28;20631;-68
2024/01/28 04:00:02;;;;;;;0.60;0.60;;;;;;;3.77;nan;100591.75;5053257;28;20197;-68
2024/01/28 04:02:29;;;;;;;0.60;0.60;;;;;;;3.67;nan;100582.28;5053472;28;20200;-68
2024/01/28 04:04:56;;;;;;;0.60;0.60;;;;;;;3.75;nan;100595.09;5045256;28;20238;-68
2024/01/28 04:07:24;;;;;;;0.60;0.60;;;;;;;3.72;nan;100602.66;5053636;28;20197;-69
2024/01/28 04:09:51;;;;;;;0.60;0.60;;;;;;;3.70;nan;100610.22;5052024;28;20201;-68
2024/01/28 04:12:17;;;;;;;0.60;0.60;;;;;;;3.63;nan;100618.53;5053081;28;20196;-68
2024/01/28 04:14:44;;;;;;;0.77;0.77;;;;;;;3.58;nan;100610.00;5052114;28;20254;-69
2024/01/28 04:17:11;;;;;;;0.67;0.67;;;;;;;3.61;nan;100630.34;5051578;28;20561;-69
2024/01/28 04:19:37;;;;;;;0.70;0.70;;;;;;;3.60;nan;100628.63;5053224;28;20204;-69
2024/01/28 04:22:05;;;;;;;0.70;0.70;;;;;;;3.60;nan;100628.63;5053249;28;20254;-69
2024/01/28 04:24:33;;;;;;;0.60;0.60;;;;;;;3.48;nan;100630.97;5053135;28;20196;-68
2024/01/28 04:26:59;;;;;;;0.60;0.60;;;;;;;3.42;nan;100625.78;5052289;28;20197;-68
2024/01/28 04:29:26;;;;;;;0.60;0.60;;;;;;;3.51;nan;100633.53;5052424;28;20635;-68
2024/01/28 04:31:53;;;;;;;0.60;0.60;;;;;;;3.47;nan;100639.38;5053398;28;20200;-68
2024/01/28 04:34:20;;;;;;;0.50;0.50;;;;;;;3.46;nan;100637.66;5053061;28;20224;-68
2024/01/28 04:36:47;;;;;;;0.60;0.60;;;;;;;3.38;nan;100636.69;5052393;28;20726;-68
2024/01/28 04:39:15;;;;;;;1.20;1.20;;;;;;;3.34;nan;100639.97;5052889;28;20197;-68
2024/01/28 04:41:43;;;;;;;0.70;0.70;;;;;;;3.35;nan;100646.75;5051272;28;20699;-68
2024/01/28 04:44:10;;;;;;;0.60;0.60;;;;;;;3.30;nan;100638.19;5051968;28;20197;-68
2024/01/28 04:46:36;;;;;;;0.87;0.87;;;;;;;3.32;nan;100641.63;5052774;28;20200;-68
2024/01/28 04:49:03;;;;;;;0.60;0.60;;;;;;;3.29;nan;100636.53;5053234;28;20196;-68
2024/01/28 04:51:31;;;;;;;0.60;0.60;;;;;;;3.17;nan;100630.38;5052714;28;20224;-68
2024/01/28 04:53:57;;;;;;;0.70;0.70;;;;;;;3.11;nan;100642.06;5044765;28;20632;-68
2024/01/28 04:56:25;;;;;;;0.60;0.60;;;;;;;3.12;nan;100648.84;5052423;28;20221;-68
2024/01/28 04:58:53;;;;;;;0.70;0.70;;;;;;;3.06;nan;100649.59;5052543;28;20197;-68
2024/01/28 05:01:20;;;;;;;1.30;1.23;;;;;;;2.98;nan;100651.13;5052276;28;20664;-68
2024/01/28 05:03:47;;;;;;;0.50;0.50;;;;;;;2.94;nan;100659.47;5052400;28;20196;-68
2024/01/28 05:06:13;;;;;;;0.67;0.67;;;;;;;2.94;nan;100659.47;5052103;28;20283;-68
2024/01/28 05:08:40;;;;;;;0.73;0.73;;;;;;;2.97;nan;100663.75;5051968;28;20197;-68
2024/01/28 05:11:07;;;;;;;0.70;0.70;;;;;;;2.94;nan;100664.53;5051743;28;20208;-68
2024/01/28 05:13:34;;;;;;;0.50;0.50;;;;;;;2.92;nan;100676.31;5052294;28;20636;-68
2024/01/28 05:16:02;;;;;;;0.60;0.60;;;;;;;2.91;nan;100677.13;5052250;28;20289;-68
2024/01/28 05:18:30;;;;;;;0.57;0.57;;;;;;;2.84;nan;100685.44;5052092;28;20217;-68
2024/01/28 05:20:57;;;;;;;0.60;0.60;;;;;;;2.76;nan;100688.63;5052466;28;20219;-68
2024/01/28 05:23:24;;;;;;;0.60;0.60;;;;;;;2.74;nan;100691.13;5051863;28;20204;-68
2024/01/28 05:25:50;;;;;;;0.70;0.70;;;;;;;2.71;nan;100691.06;5052172;28;20258;-68
2024/01/28 05:28:17;;;;;;;0.70;0.70;;;;;;;2.68;nan;100701.13;5051803;28;20197;-68
2024/01/28 05:30:44;;;;;;;0.70;0.70;;;;;;;2.64;nan;100694.28;5051685;28;20200;-68
2024/01/28 05:33:12;;;;;;;0.80;0.80;;;;;;;2.66;nan;100695.16;5051719;28;20652;-68
2024/01/28 05:35:38;;;;;;;0.73;0.73;;;;;;;2.61;nan;100699.28;5050816;28;20228;-68
2024/01/28 05:38:05;;;;;;;0.80;0.80;;;;;;;2.60;nan;100695.88;5047795;28;20198;-68
2024/01/28 05:40:32;;;;;;;0.80;0.80;;;;;;;2.58;nan;100705.13;5049877;28;20681;-69
2024/01/28 05:42:58;;;;;;;0.60;0.60;;;;;;;2.56;nan;100708.41;5050193;28;20254;-68
2024/01/28 05:45:25;;;;;;;1.27;1.27;;;;;;;2.55;nan;100714.31;5051621;28;20200;-68
2024/01/28 05:47:52;;;;;;;0.70;0.70;;;;;;;2.48;nan;100704.88;5052031;28;20255;-68
2024/01/28 05:50:20;;;;;;;0.70;0.70;;;;;;;2.55;nan;100710.09;5049058;28;20192;-69
2024/01/28 05:52:47;;;;;;;0.60;0.60;;;;;;;2.57;nan;100707.63;5050716;28;20711;-68
2024/01/28 05:55:13;;;;;;;0.60;0.60;;;;;;;2.59;nan;100716.09;5051322;28;20196;-68
2024/01/28 05:57:40;;;;;;;0.90;0.90;;;;;;;2.50;nan;100700.69;5051631;28;20626;-68
2024/01/28 06:00:09;;;;;;;0.60;0.60;;;;;;;2.55;nan;100719.38;5046904;28;20201;-68
2024/01/28 06:02:36;;;;;;;0.70;0.70;;;;;;;2.55;nan;100709.25;5050915;28;20638;-69
2024/01/28 06:05:03;;;;;;;0.73;0.73;;;;;;;2.53;nan;100714.28;5051349;28;20242;-68
2024/01/28 06:07:32;;;;;;;0.77;0.77;;;;;;;2.54;nan;100717.66;5051113;28;20657;-68
2024/01/28 06:09:58;;;;;;;0.83;0.83;;;;;;;2.53;nan;100711.75;5051369;28;20208;-68
2024/01/28 06:12:25;;;;;;;0.70;0.70;;;;;;;2.51;nan;100712.53;5050902;28;20258;-68
2024/01/28 06:14:52;;;;;;;0.70;0.70;;;;;;;2.54;nan;100722.72;5049725;28;20207;-68
2024/01/28 06:17:19;;;;;;;0.70;0.70;;;;;;;2.60;nan;100717.81;5050902;28;20228;-68
2024/01/28 06:19:46;;;;;;;0.80;0.80;;;;;;;2.69;nan;100717.16;5049382;28;20565;-68
2024/01/28 06:22:12;;;;;;;0.70;0.70;;;;;;;2.76;nan;100719.00;5051302;28;20199;-68
2024/01/28 06:24:42;;;;;;;0.90;0.90;;;;;;;2.87;nan;100727.69;5050810;28;20262;-68
2024/01/28 06:27:09;;;;;;;0.70;0.70;;;;;;;2.93;nan;100727.84;5048271;28;20200;-68
2024/01/28 06:29:36;;;;;;;0.90;0.90;;;;;;;3.02;nan;100739.00;5051062;28;20262;-68
2024/01/28 06:32:03;;;;;;;0.80;0.80;;;;;;;3.11;nan;100734.13;5049969;28;20250;-68
2024/01/28 06:34:30;;;;;;;0.60;0.60;;;;;;;3.16;nan;100735.09;5049543;28;20212;-68
2024/01/28 06:36:57;;;;;;;0.83;0.83;;;;;;;3.22;nan;100741.13;5049037;28;20266;-68
2024/01/28 06:39:23;;;;;;;0.60;0.60;;;;;;;3.32;nan;100740.47;5044113;28;20618;-68
2024/01/28 06:41:51;;;;;;;0.63;0.63;;;;;;;3.41;nan;100745.72;5048613;28;20258;-68
2024/01/28 06:44:18;;;;;;;0.70;0.70;;;;;;;3.51;nan;100745.09;5049273;28;20635;-68
2024/01/28 06:46:45;;;;;;;0.70;0.70;;;;;;;3.61;nan;100741.91;5049691;28;20204;-69
2024/01/28 06:49:12;;;;;;;0.63;0.63;;;;;;;3.75;nan;100750.63;5048665;28;20201;-68
2024/01/28 06:51:41;;;;;;;0.93;0.93;;;;;;;3.81;nan;100750.75;5047833;28;20253;-68
2024/01/28 06:54:10;;;;;;;0.87;0.87;;;;;;;3.94;nan;100755.19;5049475;28;20200;-68
2024/01/28 06:56:36;;;;;;;0.70;0.70;;;;;;;4.10;nan;100769.88;5045864;28;20696;-68
2024/01/28 06:59:04;;;;;;;0.60;0.60;;;;;;;4.19;nan;100764.97;5049348;28;20262;-69
2024/01/28 07:01:31;;;;;;;0.70;0.70;;;;;;;4.24;nan;100772.66;5048672;28;20208;-68
2024/01/28 07:03:58;;;;;;;0.60;0.60;;;;;;;4.33;nan;100765.19;5049583;28;20204;-69
2024/01/28 07:06:25;;;;;;;0.60;0.60;;;;;;;4.40;nan;100766.16;5050086;28;20193;-69
2024/01/28 07:08:52;;;;;;;0.50;0.50;;;;;;;4.42;nan;100761.97;5049997;28;20234;-66
2024/01/28 07:11:19;;;;;;;0.70;0.70;;;;;;;4.42;nan;100760.28;5049794;28;20266;-66
2024/01/28 07:13:46;;;;;;;0.70;0.70;;;;;;;4.49;nan;100763.78;5048187;28;20204;-67
2024/01/28 07:16:14;;;;;;;0.70;0.70;;;;;;;4.52;nan;100763.84;5048849;28;20691;-67
2024/01/28 07:18:40;;;;;;;0.63;0.63;;;;;;;4.58;nan;100771.53;5048702;28;20286;-68
2024/01/28 07:21:07;;;;;;;0.70;0.70;;;;;;;4.67;nan;100774.22;5050723;28;20205;-67
2024/01/28 07:23:34;;;;;;;0.53;0.53;;;;;;;4.70;nan;100764.09;5047953;28;20742;-67
2024/01/28 07:26:00;;;;;;;0.63;0.63;;;;;;;4.67;nan;100749.69;5047029;28;20200;-67
2024/01/28 07:28:27;;;;;;;0.50;0.50;;;;;;;4.78;nan;100760.00;5045307;28;20200;-68
2024/01/28 07:30:54;;;;;;;0.70;0.70;;;;;;;4.74;nan;100760.78;5047819;28;20656;-68
2024/01/28 07:33:22;;;;;;;2.30;1.07;;;;;;;4.82;nan;100766.81;5049141;28;20231;-68
2024/01/28 07:35:49;;;;;;;0.67;0.67;;;;;;;4.83;nan;100765.13;5049146;28;20680;-69
2024/01/28 07:38:15;;;;;;;0.60;0.60;;;;;;;4.91;nan;100769.50;5044438;28;20201;-69
2024/01/28 07:40:42;;;;;;;1.47;1.43;;;;;;;5.00;nan;100767.09;5049577;28;20200;-68
2024/01/28 07:43:09;;;;;;;1.00;1.00;;;;;;;5.04;nan;100773.09;5048987;28;20208;-68
2024/01/28 07:45:37;;;;;;;0.70;0.70;;;;;;;5.17;nan;100773.25;5048530;28;20258;-69
2024/01/28 07:48:04;;;;;;;0.57;0.57;;;;;;;5.27;nan;100774.22;5049315;28;20205;-68
2024/01/28 07:50:32;;;;;;;0.60;0.60;;;;;;;5.37;nan;100780.28;5047927;28;20635;-68
2024/01/28 07:52:59;;;;;;;0.60;0.60;;;;;;;5.47;nan;100782.13;5047623;28;20205;-68
2024/01/28 07:55:26;;;;;;;0.70;0.70;;;;;;;5.44;nan;100777.00;5045710;28;20650;-68
2024/01/28 07:57:53;;;;;;;0.50;0.50;;;;;;;5.66;nan;100789.13;5047183;28;20655;-69
2024/01/28 08:00:20;;;;;;;0.60;0.60;;;;;;;5.78;nan;100784.19;5048268;28;20232;-68
2024/01/28 08:02:47;;;;;;;0.60;0.60;;;;;;;5.94;nan;100778.47;5052088;28;20201;-68
2024/01/28 08:05:13;;;;;;;1.03;1.03;;;;;;;6.03;nan;100785.34;5049113;28;20201;-68
2024/01/28 08:07:42;;;;;;;0.60;0.60;;;;;;;6.06;nan;100791.31;5051356;28;20630;-68
2024/01/28 08:10:09;;;;;;;0.50;0.50;;;;;;;6.29;nan;100789.84;5051563;28;20258;-69
2024/01/28 08:12:36;;;;;;;1.10;1.00;;;;;;;6.38;nan;100783.13;5051248;28;21541;-68
2024/01/28 08:15:03;;;;;;;0.70;0.70;;;;;;;6.54;nan;100784.97;5051159;28;20204;-68
2024/01/28 08:17:30;;;;;;;0.83;0.83;;;;;;;6.73;nan;100785.13;5051536;28;20769;-69
2024/01/28 08:19:56;;;;;;;0.90;0.90;;;;;;;6.85;nan;100785.19;5050974;28;20263;-65
2024/01/28 08:22:24;;;;;;;0.50;0.50;;;;;;;6.90;nan;100787.78;5052167;28;20204;-65
2024/01/28 08:24:52;;;;;;;0.70;0.70;;;;;;;7.10;nan;100798.97;5051768;28;20291;-65
2024/01/28 08:27:19;;;;;;;0.77;0.77;;;;;;;7.25;nan;100799.06;5053178;28;20657;-63
2024/01/28 08:29:46;;;;;;;2.00;1.90;;;;;;;7.39;nan;100811.91;5053269;28;20205;-63
2024/01/28 08:32:13;;;;;;;0.70;0.70;;;;;;;7.39;nan;100805.09;5052147;28;20622;-65
2024/01/28 08:34:39;;;;;;;1.13;1.13;;;;;;;7.57;nan;100803.47;5051744;28;20274;-65
2024/01/28 08:37:06;;;;;;;0.80;0.80;;;;;;;7.59;nan;100812.00;5051135;28;20294;-64
2024/01/28 08:39:33;;;;;;;0.80;0.80;;;;;;;7.66;nan;100816.25;5050308;28;20197;-68
2024/01/28 08:42:02;;;;;;;0.77;0.77;;;;;;;7.70;nan;100817.97;5048326;28;20258;-66
2024/01/28 08:44:29;;;;;;;0.60;0.60;;;;;;;7.75;nan;100826.53;5055544;28;20201;-68
2024/01/28 08:46:56;;;;;;;0.80;0.80;;;;;;;7.65;nan;100829.88;5048861;28;20204;-68
2024/01/28 08:49:22;;;;;;;0.63;0.63;;;;;;;7.73;nan;100833.31;5043441;28;20638;-68
2024/01/28 08:51:49;;;;;;;7.57;0.87;;;;;;;7.74;nan;100835.88;5050330;28;20196;-67
2024/01/28 08:54:16;;;;;;;0.60;0.60;;;;;;;7.77;nan;100823.13;5051788;28;20676;-68
2024/01/28 08:56:43;;;;;;;0.50;0.50;;;;;;;7.89;nan;100829.97;5048975;28;20221;-67
2024/01/28 08:59:11;;;;;;;0.50;0.50;;;;;;;8.02;nan;100841.94;5048566;28;20287;-66
2024/01/28 09:01:38;;;;;;;0.60;0.60;;;;;;;8.10;nan;100845.38;5047987;28;20204;-67
2024/01/28 09:04:05;;;;;;;0.67;0.67;;;;;;;8.19;nan;100845.41;5049339;28;20212;-68
2024/01/28 09:06:31;;;;;;;0.73;0.73;;;;;;;8.30;nan;100848.00;5048380;28;20576;-68
2024/01/28 09:08:59;;;;;;;1.10;1.10;;;;;;;8.31;nan;100844.59;5049895;28;20205;-68
2024/01/28 09:11:26;;;;;;;0.60;0.60;;;;;;;8.46;nan;100838.66;5049368;28;20703;-67
2024/01/28 09:13:52;;;;;;;0.67;0.67;;;;;;;8.52;nan;100844.63;5047288;28;20208;-68
2024/01/28 09:16:21;;;;;;;0.70;0.70;;;;;;;8.54;nan;100842.06;5050279;28;20209;-68
2024/01/28 09:18:47;;;;;;;1.23;0.73;;;;;;;8.51;nan;100836.97;5047808;28;20278;-68
2024/01/28 09:21:14;;;;;;;0.70;0.70;;;;;;;8.62;nan;100845.50;5050223;28;20580;-68
2024/01/28 09:23:41;;;;;;;1.17;1.17;;;;;;;8.59;nan;100840.38;5051290;28;20715;-68
2024/01/28 09:26:07;;;;;;;0.40;0.40;;;;;;;8.63;nan;100842.06;5049504;28;20201;-69
2024/01/28 09:28:34;;;;;;;0.87;0.87;;;;;;;8.91;nan;100838.69;5050927;28;20531;-69
2024/01/28 09:31:01;;;;;;;0.70;0.70;;;;;;;8.94;nan;100843.81;5051527;28;20266;-69
2024/01/28 09:33:29;;;;;;;4.10;1.03;;;;;;;8.96;nan;100842.09;5050004;28;20204;-69
2024/01/28 09:35:56;;;;;;;0.60;0.60;;;;;;;9.06;nan;100840.38;5050950;28;20205;-69
2024/01/28 09:38:22;;;;;;;0.70;0.70;;;;;;;9.00;nan;100832.69;5051092;28;20679;-68
2024/01/28 09:40:50;;;;;;;0.70;0.70;;;;;;;9.03;nan;100840.38;5053720;28;20204;-69
2024/01/28 09:43:28;;;;;;;0.80;0.80;;;;;;;9.13;nan;100837.81;5050294;28;20258;-69
2024/01/28 09:45:55;;;;;;;0.60;0.60;;;;;;;9.13;nan;100814.78;5051385;28;20576;-69
2024/01/28 09:48:22;;;;;;;1.83;0.77;;;;;;;9.37;nan;100835.19;5051028;28;20354;-68
2024/01/28 09:50:51;;;;;;;0.70;0.70;;;;;;;9.24;nan;100836.06;5049681;28;20200;-69
2024/01/28 09:53:17;;;;;;;0.70;0.70;;;;;;;9.19;nan;100835.25;5050913;28;20261;-69
2024/01/28 09:55:44;;;;;;;0.70;0.70;;;;;;;9.34;nan;100834.34;5048785;28;20201;-69
2024/01/28 09:58:11;;;;;;;2.20;1.47;;;;;;;9.37;nan;100834.38;5047412;28;20225;-69
2024/01/28 10:00:38;;;;;;;0.60;0.60;;;;;;;9.44;nan;100831.75;5049414;28;20208;-70
2024/01/28 10:03:05;;;;;;;0.57;0.57;;;;;;;9.41;nan;100834.34;5050065;28;20254;-70
2024/01/28 10:05:31;;;;;;;0.70;0.70;;;;;;;9.38;nan;100831.78;5050353;28;20683;-70
2024/01/28 10:08:04;;;;;;;3.40;0.60;;;;;;;9.52;nan;100836.00;5050100;28;20656;-70
2024/01/28 10:10:32;;;;;;;1.50;0.73;;;;;;;9.71;nan;100841.06;5050668;28;20748;-70
2024/01/28 10:12:58;;;;;;;1.77;0.70;;;;;;;9.75;nan;100827.41;5049644;28;20196;-70
2024/01/28 10:15:27;;;;;;;0.70;0.70;;;;;;;9.67;nan;100825.72;5050388;28;20201;-70
2024/01/28 10:17:54;;;;;;;0.63;0.63;;;;;;;9.66;nan;100835.09;5043590;28;20225;-70
2024/01/28 10:20:23;;;;;;;0.90;0.90;;;;;;;9.54;nan;100829.16;5048561;28;21033;-67
2024/01/28 10:22:51;;;;;;;1.52;1.00;;;;;;;9.54;nan;100836.84;5047702;28;20943;-66
2024/01/28 10:25:22;;;;;;;1.00;1.00;;;;;;;9.62;nan;100830.88;5048028;28;20291;-66
2024/01/28 10:27:50;;;;;;;0.77;0.77;;;;;;;9.53;nan;100830.06;5050399;28;20712;-66
2024/01/28 10:30:18;;;;;;;0.60;0.60;;;;;;;9.57;nan;100826.59;5050521;28;20213;-64
2024/01/28 10:32:45;;;;;;;0.90;0.90;;;;;;;9.52;nan;100812.97;5052082;28;20212;-64
2024/01/28 10:35:13;;;;;;;0.90;0.90;;;;;;;9.58;nan;100829.16;5049799;28;20214;-65
2024/01/28 10:37:41;;;;;;;0.90;0.90;;;;;;;9.69;nan;100826.56;5052128;28;20309;-65
2024/01/28 10:40:09;;;;;;;0.80;0.80;;;;;;;9.67;nan;100828.28;5048386;28;20209;-65
2024/01/28 10:42:39;;;;;;;0.80;0.80;;;;;;;9.73;nan;100833.38;5049355;28;20207;-64
2024/01/28 10:45:08;;;;;;;0.87;0.87;;;;;;;9.68;nan;100830.84;5047674;28;20284;-65
2024/01/28 10:47:35;;;;;;;0.70;0.70;;;;;;;9.69;nan;100821.47;5049705;28;20676;-64
2024/01/28 10:50:07;;;;;;;0.63;0.63;;;;;;;9.68;nan;100824.88;5049976;28;20223;-65
2024/01/28 10:52:35;;;;;;;0.87;0.87;;;;;;;9.84;nan;100816.25;5047944;28;20207;-65
2024/01/28 10:55:02;;;;;;;0.83;0.83;;;;;;;9.88;nan;100810.28;5049451;28;20227;-65
2024/01/28 10:57:29;;;;;;;0.70;0.70;;;;;;;9.82;nan;100823.94;5050092;28;20286;-64
2024/01/28 10:59:59;;;;;;;0.60;0.60;;;;;;;9.72;nan;100816.31;5047271;28;20207;-65
2024/01/28 11:02:26;;;;;;;0.77;0.77;;;;;;;9.54;nan;100811.25;5050393;28;20196;-65
2024/01/28 11:04:54;;;;;;;1.47;1.47;;;;;;;9.59;nan;100814.66;5050073;28;20196;-65
2024/01/28 11:07:22;;;;;;;0.87;0.87;;;;;;;9.63;nan;100813.81;5048984;28;20200;-65
2024/01/28 11:09:49;;;;;;;1.10;1.00;;;;;;;9.61;nan;100812.94;5050215;28;20638;-65
2024/01/28 11:12:16;;;;;;;0.60;0.60;;;;;;;9.63;nan;100811.25;5050012;28;20266;-65
2024/01/28 11:14:43;;;;;;;0.70;0.70;;;;;;;9.59;nan;100824.91;5050789;28;20262;-65
2024/01/28 11:17:12;;;;;;;1.43;0.80;;;;;;;9.65;nan;100825.75;5042907;28;20232;-65
2024/01/28 11:19:39;;;;;;;0.63;0.63;;;;;;;9.53;nan;100819.81;5048661;28;20690;-65
2024/01/28 11:22:13;;;;;;;0.80;0.80;;;;;;;9.32;nan;100810.47;5048306;28;20520;-64
2024/01/28 11:24:48;;;;;;;0.90;0.90;;;;;;;9.30;nan;100805.38;5048624;28;20262;-65
2024/01/28 11:27:15;;;;;;;0.50;0.50;;;;;;;9.14;nan;100824.19;5049084;28;20224;-69
2024/01/28 11:29:44;;;;;;;0.50;0.50;;;;;;;9.02;nan;100819.06;5048781;28;20236;-69
2024/01/28 11:32:13;;;;;;;0.63;0.63;;;;;;;8.79;nan;100813.97;5050396;28;20205;-69
2024/01/28 11:34:43;;;;;;;0.60;0.60;;;;;;;8.70;nan;100819.06;5049667;28;20672;-69
2024/01/28 11:37:14;;;;;;;1.33;0.80;;;;;;;8.73;nan;100816.50;5052689;28;20201;-70
2024/01/28 11:39:45;;;;;;;0.60;0.60;;;;;;;8.93;nan;100796.06;5053732;28;20295;-69
2024/01/28 11:42:12;;;;;;;0.53;0.53;;;;;;;9.27;nan;100801.97;5053729;28;20968;-69
2024/01/28 11:44:40;;;;;;;0.63;0.63;;;;;;;9.34;nan;100786.56;5052830;28;20204;-71
2024/01/28 11:47:10;;;;;;;0.50;0.50;;;;;;;9.49;nan;100804.47;5057843;28;20208;-72
2024/01/28 11:49:38;;;;;;;1.00;1.00;;;;;;;9.60;nan;100803.53;5054739;28;20382;-69
2024/01/28 11:52:08;;;;;;;0.90;0.90;;;;;;;9.58;nan;100802.72;5052961;28;20505;-70